Time;durP1;ratioP1;P1;durP2;ratioP2;P2;SDS_P1;SDS_P2;PMS_P1;PMS_P2;Temp;Humidity;BMP_temperature;BMP_pressure;BME280_temperature;BME280_humidity;BME280_pressure;Samples;Min_cycle;Max_cycle;Signal;HPM_P1;HPM_P2
2024/01/12 00:00:57;;;;;;;7.90;3.40;;;0.40;76.10;;;;;;5034010;28;20782;-71
2024/01/12 00:03:26;;;;;;;9.90;3.37;;;0.30;76.10;;;;;;5025421;28;20226;-70
2024/01/12 00:05:54;;;;;;;9.27;3.60;;;0.20;77.60;;;;;;5020205;28;20239;-71
2024/01/12 00:08:23;;;;;;;9.40;2.90;;;0.20;77.20;;;;;;5021904;28;20250;-72
2024/01/12 00:10:53;;;;;;;8.83;3.60;;;0.20;77.20;;;;;;5020923;28;20234;-72
2024/01/12 00:13:22;;;;;;;10.03;3.80;;;0.30;76.80;;;;;;5015438;28;20324;-71
2024/01/12 00:15:50;;;;;;;6.13;3.03;;;0.20;77.00;;;;;;5022003;28;20619;-71
2024/01/12 00:18:19;;;;;;;8.17;3.13;;;0.20;77.10;;;;;;5026128;28;20701;-71
2024/01/12 00:20:47;;;;;;;7.93;3.83;;;0.20;76.30;;;;;;5037343;28;20229;-72
2024/01/12 00:23:16;;;;;;;9.77;3.43;;;0.20;78.10;;;;;;5026727;28;20255;-70
2024/01/12 00:25:45;;;;;;;11.20;3.80;;;0.10;77.70;;;;;;5017700;28;20663;-70
2024/01/12 00:28:15;;;;;;;7.97;3.40;;;0.20;77.10;;;;;;5040463;28;20240;-71
2024/01/12 00:30:45;;;;;;;8.00;3.27;;;-0.10;78.10;;;;;;5020967;28;20222;-72
2024/01/12 00:33:13;;;;;;;8.43;3.63;;;-0.10;77.50;;;;;;5022463;28;20225;-72
2024/01/12 00:35:42;;;;;;;8.73;4.23;;;0.00;78.20;;;;;;5020897;28;20229;-72
2024/01/12 00:38:10;;;;;;;9.80;3.87;;;-0.10;78.50;;;;;;5022532;28;20320;-72
2024/01/12 00:40:39;;;;;;;10.27;3.87;;;0.00;78.50;;;;;;5045803;28;20221;-73
2024/01/12 00:43:08;;;;;;;12.00;3.80;;;0.10;78.00;;;;;;5019476;28;20245;-71
2024/01/12 00:45:38;;;;;;;9.90;3.93;;;0.20;81.40;;;;;;5029940;28;20320;-71
2024/01/12 00:48:07;;;;;;;13.70;3.80;;;-0.10;77.50;;;;;;5026028;28;20225;-70
2024/01/12 00:50:36;;;;;;;8.60;3.83;;;-0.10;76.90;;;;;;5027314;28;20237;-72
2024/01/12 00:53:05;;;;;;;8.23;3.63;;;-0.30;76.50;;;;;;5021579;28;20231;-72
2024/01/12 00:55:33;;;;;;;10.73;3.93;;;-0.20;76.80;;;;;;5026895;28;20217;-69
2024/01/12 00:58:02;;;;;;;10.97;4.43;;;-0.30;77.30;;;;;;5027965;28;20288;-70
2024/01/12 01:00:31;;;;;;;10.33;4.03;;;-0.20;77.30;;;;;;5025984;28;20225;-69
2024/01/12 01:03:02;;;;;;;8.73;3.90;;;-0.20;76.30;;;;;;5021234;28;20682;-70
2024/01/12 01:05:31;;;;;;;11.63;4.57;;;-0.20;77.20;;;;;;5022158;28;20298;-70
2024/01/12 01:07:59;;;;;;;10.27;4.20;;;-0.30;76.90;;;;;;5024433;28;20613;-70
2024/01/12 01:10:28;;;;;;;9.57;4.20;;;-0.30;76.80;;;;;;5024035;28;20728;-70
2024/01/12 01:12:56;;;;;;;9.70;4.20;;;-0.50;77.00;;;;;;5025748;28;20681;-68
2024/01/12 01:15:25;;;;;;;9.47;4.13;;;-0.40;76.90;;;;;;5022861;28;20615;-68
2024/01/12 01:17:53;;;;;;;10.23;4.20;;;-0.40;77.40;;;;;;5020596;28;20249;-68
2024/01/12 01:20:23;;;;;;;8.40;4.40;;;-0.40;75.90;;;;;;5019457;28;20225;-69
2024/01/12 01:22:52;;;;;;;8.63;3.60;;;-0.60;75.20;;;;;;5022238;28;20217;-69
2024/01/12 01:25:20;;;;;;;10.50;3.60;;;-0.80;73.80;;;;;;5037468;28;20236;-72
2024/01/12 01:27:49;;;;;;;10.33;3.67;;;-0.70;74.30;;;;;;5023700;28;20637;-72
2024/01/12 01:30:17;;;;;;;8.33;3.50;;;-0.70;74.50;;;;;;5032446;28;20213;-71
2024/01/12 01:32:47;;;;;;;10.20;3.10;;;-0.60;75.00;;;;;;5023840;28;20225;-71
2024/01/12 01:35:17;;;;;;;10.47;3.83;;;-0.80;73.80;;;;;;5019191;28;20338;-70
2024/01/12 01:37:47;;;;;;;6.57;3.20;;;-0.60;75.80;;;;;;5016759;28;20232;-71
2024/01/12 01:40:15;;;;;;;6.80;3.13;;;-0.70;73.90;;;;;;5023085;28;20766;-71
2024/01/12 01:42:47;;;;;;;7.50;3.57;;;-0.60;74.40;;;;;;5034689;28;20231;-70
2024/01/12 01:45:16;;;;;;;13.07;3.97;;;-0.80;75.50;;;;;;5020943;28;20225;-73
2024/01/12 01:47:45;;;;;;;6.37;3.80;;;-0.80;75.50;;;;;;5037897;28;20257;-72
2024/01/12 01:50:14;;;;;;;8.40;3.77;;;-0.60;77.80;;;;;;5014076;28;20225;-70
2024/01/12 01:52:46;;;;;;;8.50;3.60;;;-0.50;76.00;;;;;;5017145;28;20241;-73
2024/01/12 01:55:16;;;;;;;5.60;2.73;;;-0.40;76.00;;;;;;5039110;28;20245;-71
2024/01/12 01:57:46;;;;;;;6.80;3.20;;;-0.60;75.80;;;;;;5018643;28;20225;-69
2024/01/12 02:00:15;;;;;;;4.73;2.40;;;-0.70;90.60;;;;;;5021599;28;20729;-69
2024/01/12 02:02:44;;;;;;;5.77;2.43;;;-0.70;75.70;;;;;;5025042;28;20226;-70
2024/01/12 02:05:13;;;;;;;5.90;2.70;;;-0.80;76.10;;;;;;5032772;28;20340;-70
2024/01/12 02:07:43;;;;;;;7.13;2.67;;;-0.90;75.50;;;;;;5017944;28;20242;-70
2024/01/12 02:10:13;;;;;;;5.87;2.43;;;-0.80;76.70;;;;;;5018811;28;20224;-70
2024/01/12 02:12:41;;;;;;;5.90;2.50;;;-1.00;75.80;;;;;;5021469;28;20788;-72
2024/01/12 02:15:11;;;;;;;5.53;2.50;;;-0.80;76.60;;;;;;5022950;28;20316;-72
2024/01/12 02:17:39;;;;;;;5.73;2.40;;;-0.80;77.50;;;;;;5036617;28;20221;-71
2024/01/12 02:20:09;;;;;;;6.07;2.60;;;-1.00;75.10;;;;;;5011929;28;20724;-70
2024/01/12 02:22:38;;;;;;;6.00;2.40;;;-1.00;77.10;;;;;;5035267;28;20293;-71
2024/01/12 02:25:09;;;;;;;6.50;2.50;;;-1.10;76.70;;;;;;5038773;28;20237;-71
2024/01/12 02:27:37;;;;;;;5.53;2.10;;;-1.10;77.50;;;;;;5033815;28;20225;-70
2024/01/12 02:30:07;;;;;;;3.97;1.87;;;-1.20;77.00;;;;;;5016016;28;20220;-69
2024/01/12 02:32:36;;;;;;;3.80;2.23;;;-1.30;77.00;;;;;;5020358;28;20240;-73
2024/01/12 02:35:05;;;;;;;5.43;2.10;;;-1.20;77.10;;;;;;5022511;28;20222;-74
2024/01/12 02:37:33;;;;;;;4.03;2.00;;;-1.20;77.30;;;;;;5023510;28;20240;-73
2024/01/12 02:40:04;;;;;;;5.17;2.00;;;-1.30;76.70;;;;;;5016018;28;20233;-73
2024/01/12 02:42:33;;;;;;;4.73;2.17;;;-1.30;76.40;;;;;;5024075;28;20214;-74
2024/01/12 02:45:01;;;;;;;3.03;1.77;;;-1.30;76.60;;;;;;5021505;28;20516;-73
2024/01/12 02:47:31;;;;;;;4.90;1.90;;;-1.50;76.80;;;;;;5014436;28;20228;-73
2024/01/12 02:49:59;;;;;;;3.30;1.70;;;-1.30;79.30;;;;;;5028381;28;20220;-72
2024/01/12 02:52:28;;;;;;;3.30;1.93;;;-1.20;77.90;;;;;;5023326;28;20237;-72
2024/01/12 02:54:56;;;;;;;4.30;1.77;;;-1.40;77.90;;;;;;5015425;28;20429;-72
2024/01/12 02:57:26;;;;;;;5.90;1.80;;;-1.40;77.40;;;;;;5037222;28;20832;-72
2024/01/12 02:59:55;;;;;;;6.40;1.93;;;-1.40;78.30;;;;;;5027166;28;20247;-73
2024/01/12 03:02:24;;;;;;;3.13;1.73;;;-1.50;76.70;;;;;;5018643;28;20248;-75
2024/01/12 03:04:53;;;;;;;2.73;1.70;;;-1.40;77.90;;;;;;5013767;28;20645;-73
2024/01/12 03:07:21;;;;;;;3.87;1.70;;;-1.30;77.90;;;;;;5021660;28;20229;-74
2024/01/12 03:09:50;;;;;;;3.43;1.73;;;-1.40;78.30;;;;;;5001656;28;20674;-72
2024/01/12 03:12:18;;;;;;;3.03;1.90;;;-1.60;78.60;;;;;;4999779;28;20238;-72
2024/01/12 03:14:48;;;;;;;4.43;1.77;;;-1.50;79.10;;;;;;4988865;28;20255;-73
2024/01/12 03:17:17;;;;;;;3.70;1.77;;;-1.80;78.60;;;;;;5004916;28;20292;-71
2024/01/12 03:19:45;;;;;;;4.97;1.63;;;-1.60;81.20;;;;;;4998356;28;20285;-72
2024/01/12 03:22:13;;;;;;;4.77;2.03;;;-1.60;80.30;;;;;;4998847;28;20222;-72
2024/01/12 03:24:42;;;;;;;2.93;1.53;;;-1.50;80.90;;;;;;4997904;28;20240;-72
2024/01/12 03:27:11;;;;;;;3.37;1.50;;;-1.40;79.20;;;;;;4994692;28;20226;-71
2024/01/12 03:29:39;;;;;;;4.43;1.70;;;-1.50;80.00;;;;;;4998810;28;20242;-73
2024/01/12 03:32:09;;;;;;;3.93;1.63;;;-1.60;80.30;;;;;;5015029;28;20242;-72
2024/01/12 03:34:37;;;;;;;3.83;1.67;;;-1.60;80.60;;;;;;4993949;28;20222;-72
2024/01/12 03:37:06;;;;;;;2.40;1.50;;;-1.60;82.80;;;;;;5003450;28;20229;-72
2024/01/12 03:39:34;;;;;;;4.17;1.67;;;-1.50;82.70;;;;;;5005580;28;20230;-73
2024/01/12 03:42:03;;;;;;;2.87;1.53;;;-1.50;82.70;;;;;;5000639;28;20256;-74
2024/01/12 03:44:32;;;;;;;3.00;1.60;;;-1.60;81.10;;;;;;5000021;28;20233;-73
2024/01/12 03:47:01;;;;;;;3.27;1.57;;;-1.80;83.70;;;;;;4995521;28;20239;-73
2024/01/12 03:49:31;;;;;;;3.23;1.50;;;-1.80;83.10;;;;;;5008014;28;20230;-73
2024/01/12 03:51:59;;;;;;;3.97;1.40;;;-1.80;83.50;;;;;;5018890;28;20229;-74
2024/01/12 03:54:43;;;;;;;3.33;1.53;;;-1.70;84.10;;;;;;5014278;28;20230;-72
2024/01/12 03:57:12;;;;;;;5.17;1.73;;;-1.60;83.90;;;;;;4997236;28;20242;-74
2024/01/12 03:59:41;;;;;;;3.27;1.27;;;-1.70;83.60;;;;;;4998425;28;20292;-74
2024/01/12 04:02:10;;;;;;;2.27;1.43;;;-1.60;83.70;;;;;;5002330;28;20585;-73
2024/01/12 04:04:42;;;;;;;2.70;1.50;;;-1.60;83.70;;;;;;5003698;28;20313;-73
2024/01/12 04:07:10;;;;;;;5.00;1.50;;;-1.50;84.50;;;;;;5016680;28;20317;-73
2024/01/12 04:09:39;;;;;;;4.83;1.60;;;-1.60;83.70;;;;;;5016475;28;20225;-75
2024/01/12 04:12:08;;;;;;;3.40;1.50;;;-1.60;83.70;;;;;;5021061;28;20249;-74
2024/01/12 04:14:37;;;;;;;3.27;1.40;;;-1.50;84.50;;;;;;5037196;28;20296;-73
2024/01/12 04:17:06;;;;;;;3.43;1.50;;;-1.40;83.80;;;;;;5033748;28;20253;-73
2024/01/12 04:19:34;;;;;;;3.00;1.50;;;-1.40;83.90;;;;;;5024505;28;20237;-73
2024/01/12 04:22:04;;;;;;;3.23;1.80;;;-1.50;83.90;;;;;;5036669;28;20218;-73
2024/01/12 04:24:33;;;;;;;4.13;1.40;;;-1.50;83.80;;;;;;5022932;28;20236;-73
2024/01/12 04:27:01;;;;;;;4.33;1.60;;;-1.50;84.40;;;;;;5024643;28;20225;-72
2024/01/12 04:29:30;;;;;;;2.63;1.33;;;-1.50;85.30;;;;;;5056720;28;20700;-70
2024/01/12 04:31:58;;;;;;;4.07;1.40;;;-1.40;84.60;;;;;;5024356;28;20257;-72
2024/01/12 04:34:26;;;;;;;6.17;1.50;;;-1.40;85.30;;;;;;5021127;28;20658;-72
2024/01/12 04:36:55;;;;;;;3.93;1.73;;;-1.50;93.40;;;;;;5022710;28;20337;-72
2024/01/12 04:39:25;;;;;;;4.13;1.50;;;-1.50;84.20;;;;;;5032319;28;20551;-72
2024/01/12 04:41:54;;;;;;;5.33;1.57;;;-1.40;85.80;;;;;;5015652;28;20226;-72
2024/01/12 04:44:22;;;;;;;3.40;1.70;;;-1.40;87.30;;;;;;5026144;28;20225;-73
2024/01/12 04:46:51;;;;;;;6.70;1.97;;;-1.40;85.60;;;;;;5020813;28;20230;-73
2024/01/12 04:49:20;;;;;;;3.90;1.70;;;-1.50;86.40;;;;;;5018881;28;20663;-73
2024/01/12 04:51:48;;;;;;;5.10;2.00;;;-1.50;87.10;;;;;;5023769;28;20320;-71
2024/01/12 04:54:17;;;;;;;6.03;1.90;;;-1.50;87.30;;;;;;5025291;28;20594;-71
2024/01/12 04:56:47;;;;;;;9.17;2.13;;;-1.40;88.20;;;;;;5056221;28;20233;-71
2024/01/12 04:59:15;;;;;;;6.30;2.00;;;-1.50;86.20;;;;;;5025517;28;20718;-72
2024/01/12 05:01:44;;;;;;;7.27;1.90;;;-1.50;89.40;;;;;;5036994;28;20233;-73
2024/01/12 05:04:13;;;;;;;5.80;2.10;;;-1.50;88.70;;;;;;5021858;28;20229;-72
2024/01/12 05:06:42;;;;;;;9.10;2.63;;;-1.50;87.40;;;;;;5038299;28;20221;-72
2024/01/12 05:09:10;;;;;;;5.73;2.30;;;-1.50;88.20;;;;;;5023959;28;20224;-71
2024/01/12 05:11:39;;;;;;;6.37;2.40;;;-1.60;89.10;;;;;;5017368;28;20304;-71
2024/01/12 05:14:09;;;;;;;5.87;2.63;;;-1.50;89.90;;;;;;5038522;28;20221;-72
2024/01/12 05:16:37;;;;;;;7.67;3.07;;;-1.50;87.80;;;;;;5033282;28;20226;-71
2024/01/12 05:19:06;;;;;;;8.17;2.53;;;-1.50;89.40;;;;;;5023680;28;20678;-70
2024/01/12 05:21:34;;;;;;;6.00;2.37;;;-1.60;87.80;;;;;;5023199;28;20237;-69
2024/01/12 05:24:03;;;;;;;6.13;2.50;;;-1.60;88.10;;;;;;5025442;28;20229;-71
2024/01/12 05:26:32;;;;;;;8.63;2.83;;;-1.60;88.50;;;;;;5025415;28;20257;-70
2024/01/12 05:29:01;;;;;;;6.27;2.80;;;-1.50;90.00;;;;;;5041161;28;20214;-70
2024/01/12 05:31:31;;;;;;;6.10;3.00;;;-1.40;89.80;;;;;;5021862;28;20229;-70
2024/01/12 05:33:59;;;;;;;7.43;2.80;;;-1.50;88.40;;;;;;5024655;28;20265;-70
2024/01/12 05:36:28;;;;;;;6.50;3.10;;;-1.50;88.30;;;;;;5024094;28;20779;-70
2024/01/12 05:38:56;;;;;;;5.80;2.70;;;-1.50;89.20;;;;;;5024913;28;20222;-71
2024/01/12 05:41:25;;;;;;;5.67;2.87;;;-1.60;89.30;;;;;;5036098;28;20730;-71
2024/01/12 05:43:53;;;;;;;6.53;2.80;;;-1.50;89.50;;;;;;5021588;28;20226;-71
2024/01/12 05:46:22;;;;;;;7.07;3.17;;;-1.60;88.60;;;;;;5040536;28;20769;-70
2024/01/12 05:48:52;;;;;;;5.73;2.80;;;-1.60;89.20;;;;;;5021178;28;20443;-71
2024/01/12 05:51:21;;;;;;;8.40;2.60;;;-1.50;89.50;;;;;;5026880;28;20229;-71
2024/01/12 05:53:49;;;;;;;6.20;2.57;;;-1.60;89.00;;;;;;5016159;28;20295;-70
2024/01/12 05:56:18;;;;;;;7.67;2.97;;;-1.60;90.10;;;;;;5029661;28;20264;-71
2024/01/12 05:58:46;;;;;;;7.43;3.00;;;-1.60;89.20;;;;;;5025081;28;20229;-71
2024/01/12 06:01:15;;;;;;;7.07;2.77;;;-1.60;89.90;;;;;;5037417;28;20271;-70
2024/01/12 06:03:45;;;;;;;11.53;3.80;;;-1.60;90.40;;;;;;5022612;28;20225;-71
2024/01/12 06:06:15;;;;;;;9.90;3.20;;;-1.60;90.40;;;;;;5024636;28;20305;-70
2024/01/12 06:08:43;;;;;;;7.03;2.83;;;-1.50;90.00;;;;;;5025257;28;20260;-71
2024/01/12 06:11:12;;;;;;;9.57;3.03;;;-1.60;90.10;;;;;;5013673;28;20709;-70
2024/01/12 06:13:41;;;;;;;9.33;2.93;;;-1.60;94.10;;;;;;5024812;28;20715;-74
2024/01/12 06:16:09;;;;;;;7.10;2.90;;;-1.60;90.70;;;;;;5025641;28;20316;-73
2024/01/12 06:18:38;;;;;;;6.60;3.50;;;-1.60;91.40;;;;;;5026315;28;20385;-72
2024/01/12 06:21:07;;;;;;;6.07;2.80;;;-1.60;89.90;;;;;;5043581;28;20264;-73
2024/01/12 06:23:37;;;;;;;7.23;3.00;;;-1.70;90.70;;;;;;5028724;28;20232;-74
2024/01/12 06:26:05;;;;;;;6.90;3.47;;;-1.60;91.40;;;;;;5032349;28;20248;-75
2024/01/12 06:28:34;;;;;;;9.60;4.10;;;-1.60;91.00;;;;;;5054530;28;20658;-75
2024/01/12 06:31:03;;;;;;;9.03;3.33;;;-1.70;91.60;;;;;;5051710;28;20324;-75
2024/01/12 06:33:32;;;;;;;8.70;3.00;;;-1.70;91.10;;;;;;5023009;28;20229;-72
2024/01/12 06:36:01;;;;;;;8.70;3.30;;;-1.70;90.90;;;;;;5013163;28;20234;-72
2024/01/12 06:38:30;;;;;;;6.47;2.97;;;-1.70;91.30;;;;;;5039317;28;20252;-72
2024/01/12 06:41:00;;;;;;;9.17;3.27;;;-1.50;91.50;;;;;;5024369;28;20225;-72
2024/01/12 06:43:29;;;;;;;8.00;3.10;;;-1.60;91.40;;;;;;5023020;28;20226;-72
2024/01/12 06:45:57;;;;;;;6.20;3.03;;;-1.60;91.00;;;;;;5020456;28;20225;-71
2024/01/12 06:48:26;;;;;;;11.07;3.10;;;-1.60;91.80;;;;;;5022320;28;20257;-71
2024/01/12 06:50:55;;;;;;;7.17;3.50;;;-1.50;91.30;;;;;;5018026;28;20264;-72
2024/01/12 06:53:23;;;;;;;9.23;3.40;;;-1.40;91.70;;;;;;5024728;28;20248;-71
2024/01/12 06:55:51;;;;;;;6.30;3.40;;;-1.50;91.40;;;;;;5025805;28;20225;-71
2024/01/12 06:58:22;;;;;;;10.57;3.83;;;-1.50;91.20;;;;;;5023162;28;21022;-70
2024/01/12 07:00:50;;;;;;;7.30;3.70;;;-1.50;91.70;;;;;;5018392;28;20233;-71
2024/01/12 07:03:19;;;;;;;9.13;3.23;;;-1.40;91.70;;;;;;5021823;28;20222;-70
2024/01/12 07:05:47;;;;;;;9.13;3.27;;;-1.40;91.50;;;;;;5019808;28;20239;-70
2024/01/12 07:08:17;;;;;;;7.47;3.30;;;-1.50;91.60;;;;;;5023071;28;20241;-69
2024/01/12 07:10:46;;;;;;;10.43;4.17;;;-1.60;91.80;;;;;;5022493;28;20234;-70
2024/01/12 07:13:15;;;;;;;8.80;3.70;;;-1.50;92.40;;;;;;5033745;28;20234;-71
2024/01/12 07:15:45;;;;;;;6.93;3.67;;;-1.40;92.10;;;;;;5019448;28;20649;-73
2024/01/12 07:18:14;;;;;;;9.60;4.43;;;-1.40;91.70;;;;;;5024033;28;20459;-71
2024/01/12 07:20:43;;;;;;;10.30;4.87;;;-1.40;92.00;;;;;;5023121;28;20328;-73
2024/01/12 07:23:11;;;;;;;11.17;4.50;;;-1.50;91.60;;;;;;5022397;28;20744;-75
2024/01/12 07:25:40;;;;;;;10.87;5.13;;;-1.50;92.30;;;;;;5016386;28;20267;-72
2024/01/12 07:28:08;;;;;;;10.77;4.57;;;-1.50;92.40;;;;;;5021318;28;20218;-72
2024/01/12 07:30:37;;;;;;;10.90;5.07;;;-1.60;92.30;;;;;;5017933;28;20263;-71
2024/01/12 07:33:08;;;;;;;9.53;4.87;;;-1.50;92.20;;;;;;5021652;28;20712;-73
2024/01/12 07:35:36;;;;;;;13.13;5.17;;;-1.40;92.30;;;;;;5012537;28;20214;-71
2024/01/12 07:38:05;;;;;;;9.70;5.23;;;-1.40;91.90;;;;;;5009677;28;20230;-71
2024/01/12 07:40:34;;;;;;;12.73;5.43;;;-1.50;91.90;;;;;;5013971;28;20248;-70
2024/01/12 07:43:03;;;;;;;12.33;6.13;;;-1.50;92.30;;;;;;5017655;28;20229;-72
2024/01/12 07:45:32;;;;;;;15.90;6.30;;;-1.60;92.40;;;;;;5023461;28;20275;-72
2024/01/12 07:48:01;;;;;;;15.73;6.50;;;-1.50;92.70;;;;;;5020733;28;20237;-75
2024/01/12 07:50:32;;;;;;;14.97;5.90;;;-1.50;92.50;;;;;;5020880;28;20229;-74
2024/01/12 07:53:00;;;;;;;14.43;6.90;;;-1.40;93.10;;;;;;5018942;28;20304;-73
2024/01/12 07:55:29;;;;;;;14.87;6.20;;;-1.30;92.80;;;;;;5052620;28;20253;-78
2024/01/12 07:57:57;;;;;;;14.80;6.77;;;-1.40;92.70;;;;;;5021996;28;20296;-73
2024/01/12 08:00:26;;;;;;;23.10;12.80;;;-1.30;92.20;;;;;;5018406;28;20229;-72
2024/01/12 08:02:54;;;;;;;17.33;7.47;;;-1.30;92.60;;;;;;5034703;28;20238;-73
2024/01/12 08:05:23;;;;;;;15.03;7.10;;;-1.40;92.80;;;;;;5021708;28;20226;-72
2024/01/12 08:07:56;;;;;;;13.77;6.03;;;-1.50;92.60;;;;;;5023193;28;20241;-73
2024/01/12 08:10:24;;;;;;;17.93;6.70;;;-1.50;92.60;;;;;;5012833;28;20681;-75
2024/01/12 08:12:53;;;;;;;15.33;6.40;;;-1.50;92.80;;;;;;5016466;28;20291;-74
2024/01/12 08:15:21;;;;;;;11.93;6.33;;;-1.50;92.60;;;;;;5016184;28;20375;-74
2024/01/12 08:17:50;;;;;;;16.63;6.73;;;-1.30;92.90;;;;;;5016569;28;20225;-73
2024/01/12 08:20:18;;;;;;;14.63;6.70;;;-1.30;93.00;;;;;;5018263;28;20835;-72
2024/01/12 08:22:47;;;;;;;15.43;6.67;;;-1.20;92.70;;;;;;5011565;28;20225;-74
2024/01/12 08:25:17;;;;;;;13.40;6.83;;;-1.20;93.00;;;;;;5031186;28;20230;-74
2024/01/12 08:27:45;;;;;;;14.67;7.23;;;-1.10;92.70;;;;;;5020607;28;20232;-73
2024/01/12 08:30:14;;;;;;;16.03;6.80;;;-1.00;92.50;;;;;;5026261;28;20777;-73
2024/01/12 08:32:43;;;;;;;14.47;6.83;;;-1.00;92.10;;;;;;5017562;28;20363;-73
2024/01/12 08:35:13;;;;;;;17.23;7.07;;;-1.00;92.60;;;;;;5035383;28;20712;-73
2024/01/12 08:37:41;;;;;;;15.87;6.80;;;-0.90;92.50;;;;;;5052526;28;20673;-73
2024/01/12 08:40:10;;;;;;;15.67;8.00;;;-0.80;92.40;;;;;;5023405;28;20213;-73
2024/01/12 08:42:40;;;;;;;23.57;10.17;;;-0.80;92.40;;;;;;5023132;28;20749;-73
2024/01/12 08:45:09;;;;;;;20.00;9.30;;;-0.80;91.90;;;;;;5024411;28;20311;-74
2024/01/12 08:47:38;;;;;;;25.87;11.33;;;-0.70;92.60;;;;;;5018047;28;20222;-74
2024/01/12 08:50:08;;;;;;;24.17;11.80;;;-0.70;92.60;;;;;;5018915;28;20217;-74
2024/01/12 08:52:37;;;;;;;28.90;11.17;;;-0.60;92.00;;;;;;5027129;28;20237;-74
2024/01/12 08:55:09;;;;;;;23.80;10.87;;;-0.70;92.00;;;;;;5038493;28;20251;-72
2024/01/12 08:57:40;;;;;;;19.87;10.10;;;-0.60;92.10;;;;;;5016177;28;20256;-73
2024/01/12 09:00:11;;;;;;;18.13;8.17;;;-0.50;92.40;;;;;;5019324;28;20229;-73
2024/01/12 09:02:39;;;;;;;17.37;8.67;;;-0.50;92.30;;;;;;5036301;28;20221;-72
2024/01/12 09:05:08;;;;;;;21.50;9.40;;;-0.70;91.60;;;;;;5019684;28;20230;-72
2024/01/12 09:07:38;;;;;;;18.30;9.40;;;-0.50;91.20;;;;;;5045274;28;20226;-73
2024/01/12 09:10:07;;;;;;;18.77;9.77;;;-0.40;91.90;;;;;;5007889;28;20327;-73
2024/01/12 09:12:35;;;;;;;21.50;10.50;;;-0.50;91.30;;;;;;5020304;28;20736;-74
2024/01/12 09:15:08;;;;;;;21.90;10.33;;;-0.50;91.60;;;;;;5013700;28;20229;-73
2024/01/12 09:17:36;;;;;;;18.17;9.47;;;-0.30;91.40;;;;;;5017310;28;20233;-73
2024/01/12 09:20:06;;;;;;;21.07;9.60;;;-0.30;91.30;;;;;;5021951;28;20217;-71
2024/01/12 09:22:35;;;;;;;22.47;10.27;;;-0.20;91.40;;;;;;5023325;28;20222;-73
2024/01/12 09:25:05;;;;;;;23.80;11.17;;;-0.20;91.20;;;;;;5048479;28;20295;-73
2024/01/12 09:27:34;;;;;;;25.87;12.47;;;-0.20;91.20;;;;;;5038034;28;20218;-73
2024/01/12 09:30:02;;;;;;;50.70;18.77;;;-0.30;91.30;;;;;;5044555;28;20254;-73
2024/01/12 09:32:32;;;;;;;40.10;15.70;;;-0.40;91.20;;;;;;5020073;28;20335;-72
2024/01/12 09:35:05;;;;;;;47.37;18.23;;;-0.30;91.50;;;;;;5021923;28;20229;-71
2024/01/12 09:37:34;;;;;;;37.00;15.00;;;-0.30;91.10;;;;;;5018118;28;20217;-73
2024/01/12 09:40:02;;;;;;;31.67;13.63;;;-0.20;90.70;;;;;;5019467;28;20500;-72
2024/01/12 09:42:33;;;;;;;44.33;19.20;;;-0.30;91.40;;;;;;5018982;28;20687;-71
2024/01/12 09:45:02;;;;;;;37.20;15.07;;;-0.20;90.90;;;;;;5039847;28;20342;-72
2024/01/12 09:47:38;;;;;;;31.17;13.47;;;-0.20;91.00;;;;;;5045013;28;20687;-72
2024/01/12 09:50:09;;;;;;;33.67;15.23;;;-0.30;91.50;;;;;;5013456;28;20716;-73
2024/01/12 09:52:38;;;;;;;27.13;13.23;;;-0.10;91.60;;;;;;5056875;28;20221;-72
2024/01/12 09:55:08;;;;;;;26.27;12.53;;;0.00;91.50;;;;;;5020843;28;21013;-71
2024/01/12 09:57:36;;;;;;;41.03;17.87;;;0.00;91.30;;;;;;5030731;28;20328;-72
2024/01/12 10:00:08;;;;;;;35.47;15.23;;;0.00;91.70;;;;;;5019154;28;20214;-73
2024/01/12 10:02:38;;;;;;;32.00;12.63;;;-0.10;91.50;;;;;;5022079;28;20225;-73
2024/01/12 10:05:08;;;;;;;36.13;14.10;;;-0.10;92.10;;;;;;5014707;28;20229;-72
2024/01/12 10:07:37;;;;;;;33.37;13.37;;;-0.10;91.00;;;;;;5023605;28;20701;-73
2024/01/12 10:10:08;;;;;;;36.57;13.87;;;0.00;90.40;;;;;;5021319;28;20279;-73
2024/01/12 10:12:36;;;;;;;37.43;14.67;;;0.00;90.70;;;;;;5017507;28;20214;-73
2024/01/12 10:15:08;;;;;;;32.13;12.20;;;-0.10;90.60;;;;;;5019361;28;20581;-73
2024/01/12 10:17:38;;;;;;;40.27;15.30;;;0.00;91.70;;;;;;5020192;28;20301;-72
2024/01/12 10:20:09;;;;;;;40.20;17.73;;;-0.10;91.50;;;;;;5025420;28;20770;-73
2024/01/12 10:22:38;;;;;;;18.27;9.20;;;-0.20;91.50;;;;;;5024721;28;20344;-73
2024/01/12 10:25:08;;;;;;;18.87;8.60;;;-0.10;91.50;;;;;;5017408;28;20260;-73
2024/01/12 10:27:36;;;;;;;14.70;7.27;;;-0.10;91.30;;;;;;5036616;28;20231;-74
2024/01/12 10:30:08;;;;;;;13.57;7.53;;;-0.20;90.90;;;;;;5020141;28;20226;-73
2024/01/12 10:32:39;;;;;;;17.63;7.40;;;-0.30;91.90;;;;;;5024466;28;20221;-73
2024/01/12 10:35:09;;;;;;;21.50;8.53;;;-0.30;91.80;;;;;;5023112;28;20536;-71
2024/01/12 10:37:39;;;;;;;18.13;8.40;;;-0.50;91.90;;;;;;5039776;28;20306;-74
2024/01/12 10:40:10;;;;;;;19.40;9.57;;;-0.40;93.00;;;;;;5014631;28;20245;-73
2024/01/12 10:42:43;;;;;;;16.43;8.00;;;-0.50;92.60;;;;;;5020621;28;20238;-73
2024/01/12 10:45:13;;;;;;;32.27;14.60;;;-0.60;93.40;;;;;;5018547;28;20880;-73
2024/01/12 10:47:53;;;;;;;20.17;10.33;;;-0.50;92.80;;;;;;5013443;28;20867;-72
2024/01/12 10:50:25;;;;;;;33.37;13.73;;;-0.40;93.40;;;;;;5036246;28;20236;-74
2024/01/12 10:53:05;;;;;;;20.60;11.00;;;-0.50;99.30;;;;;;5020586;28;20233;-75
2024/01/12 10:55:35;;;;;;;21.93;10.53;;;-0.40;93.30;;;;;;5033204;28;20320;-72
2024/01/12 10:58:04;;;;;;;19.10;8.53;;;-0.40;93.40;;;;;;5008280;28;20230;-72
2024/01/12 11:00:33;;;;;;;17.23;9.07;;;-0.30;93.40;;;;;;5012676;28;20908;-73
2024/01/12 11:03:04;;;;;;;21.30;9.87;;;-0.30;95.20;;;;;;5017991;28;20391;-74
2024/01/12 11:05:34;;;;;;;16.83;8.53;;;-0.30;93.30;;;;;;5022106;28;20249;-73
2024/01/12 11:08:10;;;;;;;15.63;7.50;;;-0.40;93.40;;;;;;5017268;28;20236;-76
2024/01/12 11:10:41;;;;;;;12.10;6.53;;;-0.60;93.80;;;;;;5018041;28;20217;-74
2024/01/12 11:13:13;;;;;;;15.40;8.03;;;-0.60;93.70;;;;;;5020723;28;20294;-75
2024/01/12 11:15:42;;;;;;;15.47;7.87;;;-0.60;99.40;;;;;;5017556;28;20243;-74
2024/01/12 11:18:13;;;;;;;12.47;6.47;;;-0.50;93.80;;;;;;5016641;28;20217;-75
2024/01/12 11:20:44;;;;;;;13.10;7.03;;;-0.70;93.50;;;;;;5021448;28;20233;-76
2024/01/12 11:23:13;;;;;;;18.10;8.43;;;-0.50;94.00;;;;;;5021654;28;20307;-75
2024/01/12 11:25:44;;;;;;;17.37;9.60;;;-0.50;94.30;;;;;;5013349;28;20280;-70
2024/01/12 11:28:15;;;;;;;18.80;8.47;;;-0.40;94.00;;;;;;5019710;28;20233;-73
2024/01/12 11:30:44;;;;;;;19.67;8.33;;;-0.60;93.80;;;;;;5012373;28;20316;-73
2024/01/12 11:33:17;;;;;;;17.33;8.27;;;-0.50;94.00;;;;;;5030953;28;20228;-74
2024/01/12 11:35:51;;;;;;;15.30;8.03;;;-0.50;93.70;;;;;;5009228;28;20226;-76
2024/01/12 11:38:20;;;;;;;20.37;8.40;;;-0.30;94.00;;;;;;5016688;28;20237;-74
2024/01/12 11:40:49;;;;;;;19.70;9.63;;;-0.30;93.70;;;;;;5018418;28;20226;-72
2024/01/12 11:43:18;;;;;;;20.90;9.50;;;-0.10;93.70;;;;;;5016966;28;20225;-73
2024/01/12 11:45:50;;;;;;;17.60;9.53;;;0.00;93.80;;;;;;5034611;28;20300;-74
2024/01/12 11:48:20;;;;;;;25.63;11.00;;;0.10;93.80;;;;;;5016339;28;20783;-73
2024/01/12 11:50:48;;;;;;;24.43;10.30;;;0.30;94.10;;;;;;5013181;28;20256;-73
2024/01/12 11:53:17;;;;;;;24.30;10.13;;;0.20;93.30;;;;;;5016567;28;20221;-73
2024/01/12 11:55:45;;;;;;;18.03;9.47;;;0.40;93.20;;;;;;5015026;28;20222;-74
2024/01/12 11:58:14;;;;;;;20.10;8.13;;;0.50;93.40;;;;;;5017581;28;20221;-73
2024/01/12 12:00:43;;;;;;;17.93;8.17;;;0.50;93.30;;;;;;5028049;28;20272;-73
2024/01/12 12:03:11;;;;;;;19.83;8.63;;;0.50;98.70;;;;;;5029779;28;20217;-71
2024/01/12 12:05:42;;;;;;;18.67;8.30;;;0.50;92.80;;;;;;5014802;28;20325;-73
2024/01/12 12:08:12;;;;;;;18.30;9.50;;;0.60;93.30;;;;;;5017804;28;20237;-73
2024/01/12 12:10:42;;;;;;;25.03;8.43;;;0.70;93.00;;;;;;5019296;28;20305;-73
2024/01/12 12:13:14;;;;;;;24.13;9.90;;;0.80;92.70;;;;;;5019482;28;20320;-74
2024/01/12 12:15:44;;;;;;;23.30;10.93;;;0.90;92.80;;;;;;5033016;28;20221;-73
2024/01/12 12:18:14;;;;;;;16.77;7.70;;;0.80;91.80;;;;;;5038213;28;20653;-74
2024/01/12 12:20:45;;;;;;;18.00;9.27;;;0.80;92.60;;;;;;5018594;28;20227;-75
2024/01/12 12:23:14;;;;;;;15.97;7.23;;;0.80;92.40;;;;;;5023360;28;20236;-74
2024/01/12 12:25:44;;;;;;;15.57;7.03;;;0.80;92.30;;;;;;5016680;28;20237;-73
2024/01/12 12:28:12;;;;;;;13.70;6.77;;;0.80;92.30;;;;;;5020710;28;20222;-74
2024/01/12 12:30:41;;;;;;;12.23;6.90;;;0.90;92.00;;;;;;5018886;28;20589;-73
2024/01/12 12:33:11;;;;;;;16.17;6.63;;;0.90;92.40;;;;;;5023125;28;20222;-73
2024/01/12 12:35:40;;;;;;;14.57;6.97;;;0.90;92.20;;;;;;5029983;28;20238;-75
2024/01/12 12:38:10;;;;;;;13.80;6.67;;;1.00;92.50;;;;;;5026796;28;20230;-73
2024/01/12 12:40:39;;;;;;;15.17;6.60;;;0.90;92.10;;;;;;5022497;28;20366;-72
2024/01/12 12:43:07;;;;;;;11.43;6.17;;;1.00;92.80;;;;;;5020240;28;20309;-74
2024/01/12 12:45:36;;;;;;;13.83;6.13;;;0.90;98.20;;;;;;5024353;28;20222;-72
2024/01/12 12:48:06;;;;;;;13.13;6.30;;;0.80;92.80;;;;;;5052761;28;20588;-73
2024/01/12 12:50:36;;;;;;;15.10;6.60;;;0.90;92.90;;;;;;5023813;28;20236;-74
2024/01/12 12:53:05;;;;;;;11.10;6.03;;;0.90;93.20;;;;;;5019258;28;20346;-75